Time;durP1;ratioP1;P1;durP2;ratioP2;P2;SDS_P1;SDS_P2;PMS_P1;PMS_P2;Temp;Humidity;BMP_temperature;BMP_pressure;BME280_temperature;BME280_humidity;BME280_pressure;Samples;Min_cycle;Max_cycle;Signal;HPM_P1;HPM_P2
2021/04/02 00:01:25;;;;;;;6.00;2.93;;;;;;;8.12;100.00;102871.02;1867928;76;26643;-78
2021/04/02 00:03:54;;;;;;;6.90;2.77;;;;;;;8.03;100.00;102867.33;1866725;76;26683;-78
2021/04/02 00:06:25;;;;;;;3.77;2.37;;;;;;;8.07;100.00;102868.58;1873132;76;26208;-78
2021/04/02 00:08:54;;;;;;;5.37;2.53;;;;;;;8.09;100.00;102869.20;1873073;75;26292;-78
2021/04/02 00:11:24;;;;;;;4.47;2.47;;;;;;;8.18;100.00;102871.50;1866833;76;26204;-78
2021/04/02 00:13:55;;;;;;;5.37;2.70;;;;;;;8.02;100.00;102872.54;1867446;76;26671;-79
2021/04/02 00:16:24;;;;;;;2.60;2.40;;;;;;;8.00;100.00;102877.46;1873098;76;26302;-78
2021/04/02 00:18:54;;;;;;;5.80;2.50;;;;;;;7.98;100.00;102876.28;1866866;76;26217;-77
2021/04/02 00:21:24;;;;;;;3.50;2.60;;;;;;;7.96;100.00;102876.20;1873093;76;26266;-77
2021/04/02 00:23:54;;;;;;;3.80;2.40;;;;;;;7.91;100.00;102875.47;1873064;76;26278;-77
2021/04/02 00:26:26;;;;;;;5.37;2.93;;;;;;;7.93;100.00;102876.61;1871401;76;26293;-77
2021/04/02 00:28:57;;;;;;;5.60;2.07;;;;;;;8.02;100.00;102873.92;1864188;76;26733;-77
2021/04/02 00:31:27;;;;;;;5.03;2.07;;;;;;;7.93;100.00;102876.08;1871994;76;26225;-77
2021/04/02 00:33:57;;;;;;;7.07;2.23;;;;;;;7.95;100.00;102879.50;1868708;76;26208;-77
2021/04/02 00:36:26;;;;;;;4.10;2.30;;;;;;;7.80;100.00;102874.73;1865314;76;26258;-77
2021/04/02 00:38:57;;;;;;;5.93;2.10;;;;;;;7.63;100.00;102877.66;1869064;76;26212;-77
2021/04/02 00:41:27;;;;;;;4.57;1.80;;;;;;;7.63;100.00;102879.04;1870668;76;26220;-77
2021/04/02 00:43:56;;;;;;;3.00;1.67;;;;;;;7.59;100.00;102880.54;1868003;76;26290;-78
2021/04/02 00:46:26;;;;;;;2.53;1.90;;;;;;;7.62;100.00;102880.10;1866869;76;26221;-78
2021/04/02 00:48:56;;;;;;;2.27;2.00;;;;;;;7.50;100.00;102881.83;1873136;76;26679;-78
2021/04/02 00:51:28;;;;;;;3.97;1.83;;;;;;;7.51;100.00;102871.95;1866837;76;26235;-78
2021/04/02 00:53:59;;;;;;;3.27;1.67;;;;;;;7.46;100.00;102872.27;1873193;76;26274;-78
2021/04/02 00:56:30;;;;;;;3.57;1.63;;;;;;;7.41;100.00;102879.83;1873120;76;26795;-78
2021/04/02 00:59:00;;;;;;;4.37;1.63;;;;;;;7.33;100.00;102880.05;1866735;76;26679;-78
2021/04/02 01:01:31;;;;;;;4.10;2.17;;;;;;;7.34;100.00;102880.38;1873091;76;26693;-78
2021/04/02 01:04:01;;;;;;;8.40;2.30;;;;;;;7.49;100.00;102877.36;1870569;76;26298;-79
2021/04/02 01:06:31;;;;;;;6.43;1.90;;;;;;;7.58;100.00;102867.24;1869599;76;26697;-79
2021/04/02 01:09:01;;;;;;;3.10;2.07;;;;;;;7.73;100.00;102869.24;1873001;75;26652;-80
2021/04/02 01:11:31;;;;;;;6.13;1.83;;;;;;;7.62;100.00;102866.27;1861635;76;26666;-80
2021/04/02 01:14:01;;;;;;;3.57;1.87;;;;;;;7.63;100.00;102863.83;1870557;76;26286;-79
2021/04/02 01:16:33;;;;;;;7.43;2.20;;;;;;;7.65;100.00;102863.95;1862722;76;26662;-79
2021/04/02 01:19:06;;;;;;;5.07;2.10;;;;;;;7.76;100.00;102869.33;1866821;76;26219;-79
2021/04/02 01:21:40;;;;;;;3.83;2.13;;;;;;;7.78;100.00;102865.83;1868151;75;26265;-78
2021/04/02 01:24:19;;;;;;;2.10;1.83;;;;;;;7.66;100.00;102858.70;1872376;76;26225;-77
2021/04/02 01:26:59;;;;;;;4.73;2.60;;;;;;;7.82;100.00;102862.09;1865813;75;26674;-77
2021/04/02 01:29:32;;;;;;;3.97;2.07;;;;;;;7.86;100.00;102866.97;1867610;76;26204;-79
2021/04/02 01:32:03;;;;;;;4.47;2.10;;;;;;;7.81;100.00;102861.23;1866695;76;26287;-78
2021/04/02 01:34:36;;;;;;;5.23;2.10;;;;;;;7.84;100.00;102861.31;1869494;76;26725;-78
2021/04/02 01:37:09;;;;;;;3.43;2.37;;;;;;;7.88;100.00;102859.28;1864142;76;26262;-80
2021/04/02 01:39:43;;;;;;;6.10;2.33;;;;;;;7.85;100.00;102858.34;1861800;76;26383;-78
2021/04/02 01:42:17;;;;;;;4.20;2.73;;;;;;;7.81;100.00;102860.37;1866810;76;26278;-79
2021/04/02 01:44:48;;;;;;;3.37;2.60;;;;;;;7.80;100.00;102856.75;1873103;76;26229;-80
2021/04/02 01:47:19;;;;;;;3.43;2.37;;;;;;;7.73;100.00;102851.79;1860381;76;26212;-80
2021/04/02 01:49:50;;;;;;;5.90;2.60;;;;;;;7.76;100.00;102847.20;1873019;76;26664;-79
2021/04/02 01:52:22;;;;;;;7.80;2.73;;;;;;;7.82;100.00;102848.25;1873036;76;26833;-78
2021/04/02 01:54:52;;;;;;;3.57;2.40;;;;;;;7.84;100.00;102850.25;1873029;76;26271;-78
2021/04/02 01:57:23;;;;;;;5.30;2.70;;;;;;;7.79;100.00;102853.14;1866647;76;26255;-79
2021/04/02 01:59:54;;;;;;;4.43;2.50;;;;;;;7.76;100.00;102848.58;1869328;76;26742;-78
2021/04/02 02:02:24;;;;;;;5.00;2.67;;;;;;;7.74;100.00;102846.58;1864197;76;26235;-79
2021/04/02 02:04:57;;;;;;;5.40;3.10;;;;;;;7.70;100.00;102846.14;1861363;76;26274;-78
2021/04/02 02:07:27;;;;;;;7.30;2.80;;;;;;;7.78;100.00;102836.25;1872934;76;26212;-78
2021/04/02 02:09:59;;;;;;;4.97;2.20;;;;;;;7.78;100.00;102839.55;1872838;75;26695;-78
2021/04/02 02:12:30;;;;;;;3.37;1.90;;;;;;;7.73;100.00;102833.81;1872926;76;26208;-78
2021/04/02 02:15:02;;;;;;;4.27;2.47;;;;;;;7.68;100.00;102842.76;1866646;76;26227;-78
2021/04/02 02:17:33;;;;;;;4.00;2.60;;;;;;;7.71;100.00;102845.08;1873067;76;26345;-78
2021/04/02 02:20:06;;;;;;;4.13;2.30;;;;;;;7.74;100.00;102846.58;1866598;76;26706;-78
2021/04/02 02:22:38;;;;;;;4.53;2.10;;;;;;;7.76;100.00;102845.81;1866757;76;26270;-79
2021/04/02 02:25:11;;;;;;;2.93;1.80;;;;;;;7.77;100.00;102848.91;1869591;76;26313;-78
2021/04/02 02:27:42;;;;;;;3.97;2.17;;;;;;;7.67;100.00;102843.82;1870862;76;26213;-79
2021/04/02 02:30:15;;;;;;;2.20;1.50;;;;;;;7.65;100.00;102850.65;1869540;76;26303;-78
2021/04/02 02:32:46;;;;;;;3.30;1.73;;;;;;;7.66;100.00;102844.02;1871004;76;26282;-78
2021/04/02 02:35:16;;;;;;;5.07;1.97;;;;;;;7.61;100.00;102841.09;1872917;76;26212;-78
2021/04/02 02:37:47;;;;;;;5.37;1.63;;;;;;;7.61;100.00;102834.17;1866663;76;26690;-78
2021/04/02 02:40:20;;;;;;;4.97;2.10;;;;;;;7.61;100.00;102840.56;1872990;76;26282;-77
2021/04/02 02:42:52;;;;;;;4.70;1.70;;;;;;;7.63;100.00;102841.70;1866591;76;26274;-78
2021/04/02 02:45:22;;;;;;;3.47;2.13;;;;;;;7.59;100.00;102835.77;1863264;76;26224;-78
2021/04/02 02:47:52;;;;;;;4.90;1.70;;;;;;;7.66;100.00;102833.81;1870591;76;26215;-78
2021/04/02 02:50:25;;;;;;;7.40;1.70;;;;;;;7.58;100.00;102835.97;1869890;76;26259;-78
2021/04/02 02:52:56;;;;;;;4.73;1.70;;;;;;;7.55;100.00;102838.64;1870448;76;26297;-78
2021/04/02 02:55:29;;;;;;;5.17;1.57;;;;;;;7.59;100.00;102834.91;1872987;76;26205;-78
2021/04/02 02:58:02;;;;;;;3.77;1.43;;;;;;;7.47;100.00;102829.20;1872912;76;26209;-79
2021/04/02 03:00:35;;;;;;;2.43;1.40;;;;;;;7.52;100.00;102840.47;1872919;76;26627;-78
2021/04/02 03:03:10;;;;;;;4.53;1.70;;;;;;;7.37;100.00;102837.08;1872966;76;26235;-78
2021/04/02 03:05:41;;;;;;;7.40;1.80;;;;;;;7.49;100.00;102835.88;1872958;76;26204;-78
2021/04/02 03:08:14;;;;;;;5.60;1.87;;;;;;;7.42;100.00;102838.67;1866637;76;26647;-78
2021/04/02 03:10:45;;;;;;;3.77;1.97;;;;;;;7.39;100.00;102840.50;1872854;75;26707;-78
2021/04/02 03:13:17;;;;;;;3.70;1.53;;;;;;;7.37;100.00;102834.84;1872690;76;26345;-78
2021/04/02 03:15:49;;;;;;;5.07;1.83;;;;;;;7.44;100.00;102842.62;1867794;76;26729;-78
2021/04/02 03:18:21;;;;;;;4.33;1.70;;;;;;;7.38;100.00;102842.94;1866482;76;26277;-78
2021/04/02 03:20:53;;;;;;;5.47;2.63;;;;;;;7.39;100.00;102839.11;1867815;76;26730;-79
2021/04/02 03:23:24;;;;;;;5.77;1.53;;;;;;;7.35;100.00;102832.84;1873079;76;26267;-79
2021/04/02 03:25:54;;;;;;;4.03;1.83;;;;;;;7.33;100.00;102832.52;1873086;76;26286;-80
2021/04/02 03:28:25;;;;;;;5.30;1.70;;;;;;;7.24;100.00;102829.66;1873284;76;26375;-79
2021/04/02 03:30:55;;;;;;;6.03;2.00;;;;;;;7.32;100.00;102834.11;1873156;76;26271;-79
2021/04/02 03:33:28;;;;;;;5.00;1.70;;;;;;;7.37;100.00;102832.94;1866787;76;26655;-78
2021/04/02 03:36:01;;;;;;;4.53;1.80;;;;;;;7.43;100.00;102839.53;1873456;76;26307;-79
2021/04/02 03:38:35;;;;;;;5.70;1.60;;;;;;;7.41;100.00;102837.49;1866901;76;26207;-77
2021/04/02 03:41:08;;;;;;;3.50;1.50;;;;;;;7.44;100.00;102837.94;1866911;76;26208;-78
2021/04/02 03:43:39;;;;;;;4.50;1.70;;;;;;;7.33;100.00;102835.28;1866471;76;26745;-78
2021/04/02 03:46:11;;;;;;;2.37;1.50;;;;;;;7.25;100.00;102836.90;1868125;76;26295;-78
2021/04/02 03:49:02;;;;;;;6.40;1.87;;;;;;;7.20;100.00;102839.45;1764078;81;33868;-79
2021/04/02 03:51:35;;;;;;;6.10;1.83;;;;;;;7.17;100.00;102832.98;1760919;81;26770;-79
2021/04/02 03:54:07;;;;;;;5.70;2.07;;;;;;;7.11;100.00;102829.67;1753371;81;26257;-79
2021/04/02 03:56:40;;;;;;;6.17;1.97;;;;;;;7.25;100.00;102830.52;1753360;82;26344;-79
2021/04/02 03:59:12;;;;;;;4.80;1.60;;;;;;;7.12;100.00;102828.62;1753547;82;26422;-80
2021/04/02 04:01:45;;;;;;;5.23;1.70;;;;;;;7.19;100.00;102830.84;1742030;80;930625;-79
2021/04/02 04:04:16;;;;;;;2.57;1.47;;;;;;;7.15;100.00;102830.95;1753403;82;26357;-79
2021/04/02 04:06:48;;;;;;;4.87;1.67;;;;;;;7.09;100.00;102832.35;1753422;82;26362;-79
2021/04/02 04:09:20;;;;;;;7.43;1.73;;;;;;;7.08;100.00;102834.26;1753324;82;26841;-79
2021/04/02 04:11:51;;;;;;;2.70;1.50;;;;;;;7.13;100.00;102827.56;1753295;80;26396;-80
2021/04/02 04:14:24;;;;;;;4.20;1.60;;;;;;;7.24;100.00;102831.57;1753329;82;26265;-79
2021/04/02 04:16:57;;;;;;;5.37;1.90;;;;;;;7.13;100.00;102833.09;1753425;82;26281;-79
2021/04/02 04:19:28;;;;;;;6.70;1.83;;;;;;;7.21;100.00;102834.78;1769394;77;26208;-79
2021/04/02 04:22:01;;;;;;;4.47;1.53;;;;;;;7.28;100.00;102841.13;1861100;77;26212;-78
2021/04/02 04:24:32;;;;;;;4.53;1.60;;;;;;;7.23;100.00;102842.34;1862571;76;26286;-79
2021/04/02 04:27:04;;;;;;;3.97;1.43;;;;;;;7.19;100.00;102838.27;1873052;76;26212;-79
2021/04/02 04:29:40;;;;;;;2.70;1.40;;;;;;;7.30;100.00;102845.93;1867833;76;26209;-78
2021/04/02 04:32:14;;;;;;;5.57;1.50;;;;;;;7.26;100.00;102842.75;1860561;76;26658;-79
2021/04/02 04:34:46;;;;;;;6.20;2.00;;;;;;;7.25;100.00;102841.58;1873430;76;26291;-79
2021/04/02 04:37:17;;;;;;;6.77;2.17;;;;;;;7.31;100.00;102851.78;1872438;76;26224;-79
2021/04/02 04:39:50;;;;;;;7.23;1.87;;;;;;;7.28;100.00;102849.42;1864441;76;26740;-78
2021/04/02 04:42:22;;;;;;;6.63;1.63;;;;;;;7.29;100.00;102842.84;1864503;76;26659;-78
2021/04/02 04:44:54;;;;;;;3.27;1.43;;;;;;;7.20;100.00;102846.89;1868494;76;26364;-78
2021/04/02 04:47:24;;;;;;;4.87;1.57;;;;;;;7.24;100.00;102838.48;1865775;76;26199;-78
2021/04/02 04:49:54;;;;;;;4.57;1.90;;;;;;;7.28;100.00;102843.37;1862250;76;26248;-78
2021/04/02 04:52:26;;;;;;;4.73;1.70;;;;;;;7.25;100.00;102842.42;1872777;76;26261;-79
2021/04/02 04:54:57;;;;;;;4.70;1.70;;;;;;;7.22;100.00;102845.62;1868295;76;26302;-79
2021/04/02 04:57:30;;;;;;;3.53;1.40;;;;;;;7.21;100.00;102849.45;1873286;76;26224;-78
2021/04/02 05:00:01;;;;;;;6.83;2.33;;;;;;;7.23;100.00;102840.95;1869534;76;26667;-78
2021/04/02 05:02:33;;;;;;;4.90;1.70;;;;;;;7.18;100.00;102840.22;1865069;76;26321;-79
2021/04/02 05:05:04;;;;;;;6.30;1.67;;;;;;;7.25;100.00;102842.42;1869560;76;26208;-78
2021/04/02 05:07:36;;;;;;;5.50;1.60;;;;;;;7.29;100.00;102845.08;1858676;76;26309;-78
2021/04/02 05:10:07;;;;;;;8.57;2.43;;;;;;;7.23;100.00;102840.95;1866993;76;26211;-79
2021/04/02 05:12:39;;;;;;;6.67;2.07;;;;;;;7.21;100.00;102848.59;1872824;75;26252;-79
2021/04/02 05:15:13;;;;;;;4.90;1.90;;;;;;;7.20;100.00;102853.80;1861786;76;26217;-79
2021/04/02 05:17:45;;;;;;;6.83;1.70;;;;;;;7.19;100.00;102857.09;1873252;76;26212;-79
2021/04/02 05:20:17;;;;;;;3.93;1.83;;;;;;;7.18;100.00;102862.33;1867015;76;26655;-79
2021/04/02 05:22:47;;;;;;;5.13;1.80;;;;;;;7.17;100.00;102862.53;1860640;76;26208;-80
2021/04/02 05:25:17;;;;;;;5.03;2.13;;;;;;;7.23;100.00;102865.83;1873205;76;26709;-80
2021/04/02 05:27:47;;;;;;;5.67;2.30;;;;;;;7.23;100.00;102865.83;1860889;76;26219;-79
2021/04/02 05:30:19;;;;;;;4.27;1.77;;;;;;;7.25;100.00;102867.30;1873196;76;26636;-78
2021/04/02 05:32:48;;;;;;;3.67;1.70;;;;;;;7.23;100.00;102861.13;1866869;76;26219;-79
2021/04/02 05:35:18;;;;;;;4.73;1.60;;;;;;;7.25;100.00;102868.69;1861096;76;26729;-80
2021/04/02 05:37:49;;;;;;;4.33;2.03;;;;;;;7.36;100.00;102866.34;1867383;76;26215;-80
2021/04/02 05:40:20;;;;;;;7.10;1.90;;;;;;;7.16;100.00;102872.73;1858756;76;26212;-80
2021/04/02 05:42:53;;;;;;;6.23;1.67;;;;;;;7.25;100.00;102870.59;1873270;76;26332;-80
2021/04/02 05:45:26;;;;;;;8.20;2.30;;;;;;;7.16;100.00;102874.64;1873391;76;26620;-81
2021/04/02 05:47:57;;;;;;;4.87;2.27;;;;;;;7.18;100.00;102878.05;1866996;76;26278;-82
2021/04/02 05:50:29;;;;;;;6.93;2.30;;;;;;;7.19;100.00;102878.34;1870455;76;26275;-79
2021/04/02 05:53:03;;;;;;;6.03;1.90;;;;;;;7.22;100.00;102884.33;1864141;76;26648;-78
2021/04/02 05:55:37;;;;;;;4.70;2.40;;;;;;;7.14;100.00;102885.92;1870003;76;26246;-78
2021/04/02 05:58:08;;;;;;;5.50;1.90;;;;;;;7.23;100.00;102892.09;1870757;76;26216;-78
2021/04/02 06:00:40;;;;;;;5.40;1.93;;;;;;;7.18;100.00;102894.11;1867509;76;26275;-78
2021/04/02 06:03:11;;;;;;;7.73;2.10;;;;;;;7.19;100.00;102894.41;1866800;76;26243;-79
2021/04/02 06:05:41;;;;;;;5.30;1.80;;;;;;;7.27;100.00;102901.66;1858130;77;26294;-79
2021/04/02 06:08:12;;;;;;;9.20;2.57;;;;;;;7.26;100.00;102903.56;1870576;76;26216;-79
2021/04/02 06:10:41;;;;;;;6.43;2.37;;;;;;;7.29;100.00;102907.28;1866957;76;26209;-80
2021/04/02 06:13:11;;;;;;;3.83;1.97;;;;;;;7.27;100.00;102908.56;1873035;75;26342;-77
2021/04/02 06:15:41;;;;;;;6.20;1.80;;;;;;;7.31;100.00;102913.98;1873169;76;26270;-78
2021/04/02 06:18:14;;;;;;;6.30;2.37;;;;;;;7.29;100.00;102912.81;1866882;76;26624;-77
2021/04/02 06:20:47;;;;;;;5.03;2.30;;;;;;;7.30;100.00;102918.66;1873277;76;26282;-80
2021/04/02 06:23:18;;;;;;;5.13;2.53;;;;;;;7.23;100.00;102924.70;1873160;76;26212;-78
2021/04/02 06:25:50;;;;;;;5.57;2.00;;;;;;;7.33;100.00;102932.58;1873266;76;26212;-77
2021/04/02 06:28:22;;;;;;;3.47;1.93;;;;;;;7.29;100.00;102926.62;1866904;76;26282;-78
2021/04/02 06:30:59;;;;;;;3.83;1.80;;;;;;;7.26;100.00;102928.45;1866993;76;26208;-78
2021/04/02 06:33:49;;;;;;;7.50;2.07;;;;;;;7.21;100.00;102932.90;1866983;76;26204;-77
2021/04/02 06:36:21;;;;;;;6.27;1.90;;;;;;;7.22;100.00;102931.84;1869011;76;26201;-79
2021/04/02 06:38:52;;;;;;;4.73;1.90;;;;;;;7.15;100.00;102933.73;1873151;76;26672;-78
2021/04/02 06:41:24;;;;;;;4.90;2.10;;;;;;;7.19;100.00;102933.62;1862045;76;26286;-77
2021/04/02 06:43:57;;;;;;;6.83;1.80;;;;;;;7.13;100.00;102935.34;1866097;76;26220;-78
2021/04/02 06:46:28;;;;;;;3.87;1.73;;;;;;;7.27;100.00;102934.83;1873219;76;26204;-78
2021/04/02 06:49:00;;;;;;;5.37;1.83;;;;;;;7.23;100.00;102943.23;1866926;76;26208;-78
2021/04/02 06:51:30;;;;;;;4.63;1.90;;;;;;;7.29;100.00;102947.36;1871912;75;26200;-77
2021/04/02 06:54:01;;;;;;;4.20;1.80;;;;;;;7.34;100.00;102945.34;1866883;76;26227;-77
2021/04/02 06:56:34;;;;;;;5.70;1.90;;;;;;;7.38;100.00;102948.53;1873147;76;26275;-78
2021/04/02 06:59:05;;;;;;;2.50;1.50;;;;;;;7.42;100.00;102955.33;1867170;76;26207;-78
2021/04/02 07:01:36;;;;;;;4.27;1.70;;;;;;;7.38;100.00;102956.82;1862195;76;26259;-78
2021/04/02 07:04:06;;;;;;;6.10;1.70;;;;;;;7.53;100.00;102954.71;1872048;76;26248;-78
2021/04/02 07:06:36;;;;;;;6.27;1.97;;;;;;;7.49;100.00;102948.73;1873110;76;26208;-78
2021/04/02 07:09:08;;;;;;;3.10;1.30;;;;;;;7.49;100.00;102962.55;1872108;76;26685;-78
2021/04/02 07:11:40;;;;;;;3.93;2.27;;;;;;;7.49;100.00;102963.08;1868602;76;26668;-78
2021/04/02 07:14:11;;;;;;;3.60;1.90;;;;;;;7.45;100.00;102962.66;1873159;75;26695;-78
2021/04/02 07:16:42;;;;;;;6.17;2.97;;;;;;;7.47;100.00;102960.55;1873207;76;26220;-77
2021/04/02 07:19:12;;;;;;;3.70;1.60;;;;;;;7.53;100.00;102966.59;1873277;76;26282;-79
2021/04/02 07:21:42;;;;;;;5.73;2.17;;;;;;;7.55;100.00;102961.72;1869374;76;26631;-78
2021/04/02 07:24:14;;;;;;;5.93;1.40;;;;;;;7.59;100.00;102962.13;1871206;76;26277;-76
2021/04/02 07:26:44;;;;;;;6.57;1.57;;;;;;;7.50;100.00;102957.88;1863108;76;26219;-76
2021/04/02 07:29:16;;;;;;;5.27;1.60;;;;;;;7.53;100.00;102964.39;1871022;76;26721;-75
2021/04/02 07:31:46;;;;;;;5.53;1.80;;;;;;;7.58;100.00;102966.81;1869829;76;26255;-78
2021/04/02 07:34:18;;;;;;;7.73;1.70;;;;;;;7.63;100.00;102962.88;1870779;76;26279;-76
2021/04/02 07:36:49;;;;;;;7.13;1.50;;;;;;;7.61;100.00;102965.55;1873081;76;26282;-76
2021/04/02 07:39:20;;;;;;;6.57;1.70;;;;;;;7.78;100.00;102965.42;1873243;76;26220;-76
2021/04/02 07:41:53;;;;;;;3.00;1.60;;;;;;;7.73;100.00;102971.60;1863610;76;26215;-76
2021/04/02 07:44:23;;;;;;;4.73;1.80;;;;;;;7.78;100.00;102966.81;1870598;76;26220;-76
2021/04/02 07:47:07;;;;;;;6.03;1.70;;;;;;;7.82;100.00;102972.23;1867417;76;26289;-76
2021/04/02 07:49:42;;;;;;;7.13;1.70;;;;;;;7.86;100.00;102977.64;1866953;76;26277;-76
2021/04/02 07:52:11;;;;;;;5.30;1.80;;;;;;;7.88;100.00;102980.17;1866813;76;26278;-75
2021/04/02 07:54:43;;;;;;;6.50;2.03;;;;;;;7.85;100.00;102987.53;1866732;76;26310;-78
2021/04/02 07:57:18;;;;;;;6.27;1.80;;;;;;;7.83;100.00;102993.27;1866789;76;26302;-77
2021/04/02 07:59:49;;;;;;;8.27;1.57;;;;;;;7.95;100.00;102988.81;1873162;76;26270;-77
2021/04/02 08:02:21;;;;;;;4.40;2.50;;;;;;;8.15;100.00;102989.61;1873261;76;26232;-77
2021/04/02 08:04:55;;;;;;;4.87;1.83;;;;;;;8.08;100.00;102993.47;1872125;75;26659;-77
2021/04/02 08:07:34;;;;;;;7.70;1.70;;;;;;;7.96;100.00;102991.05;1873242;76;26204;-78
2021/04/02 08:10:07;;;;;;;5.80;1.67;;;;;;;7.90;100.00;102999.67;1866898;76;26212;-76
2021/04/02 08:12:37;;;;;;;4.73;2.00;;;;;;;8.10;100.00;102999.09;1873083;76;26216;-76
2021/04/02 08:15:13;;;;;;;7.47;2.57;;;;;;;8.20;100.00;103005.57;1873020;75;26335;-76
2021/04/02 08:17:44;;;;;;;4.87;1.77;;;;;;;8.21;100.00;103005.33;1873038;76;26271;-76
2021/04/02 08:20:16;;;;;;;4.57;1.80;;;;;;;8.41;100.00;103008.63;1866830;76;26204;-77
2021/04/02 08:22:49;;;;;;;5.43;1.80;;;;;;;8.32;100.00;103013.55;1867282;76;26321;-76
2021/04/02 08:25:22;;;;;;;5.10;1.80;;;;;;;8.39;100.00;103002.44;1867325;76;26200;-77
2021/04/02 08:27:52;;;;;;;5.90;1.83;;;;;;;8.47;100.00;103012.73;1873198;76;26660;-77
2021/04/02 08:30:24;;;;;;;5.17;1.87;;;;;;;8.40;100.00;103007.77;1873223;76;26204;-77
2021/04/02 08:32:56;;;;;;;5.73;2.53;;;;;;;8.28;100.00;103005.33;1873324;76;26200;-77
2021/04/02 08:35:27;;;;;;;4.23;1.87;;;;;;;8.21;100.00;103005.33;1867017;76;26216;-77
2021/04/02 08:38:02;;;;;;;3.87;1.70;;;;;;;8.28;100.00;103007.24;1867193;76;26200;-77
2021/04/02 08:40:35;;;;;;;5.53;1.90;;;;;;;8.53;100.00;103001.33;1856287;76;26189;-77
2021/04/02 08:43:06;;;;;;;4.67;2.17;;;;;;;8.50;100.00;103002.63;1871038;76;26232;-78
2021/04/02 08:45:38;;;;;;;9.33;1.90;;;;;;;8.56;100.00;103002.27;1870174;76;26283;-77
2021/04/02 08:48:11;;;;;;;5.27;2.07;;;;;;;8.56;100.00;103003.65;1864516;76;26258;-77
2021/04/02 08:50:44;;;;;;;4.20;1.70;;;;;;;8.54;100.00;103006.66;1865855;76;26224;-77
2021/04/02 08:53:15;;;;;;;3.53;1.70;;;;;;;8.51;100.00;103004.34;1866452;76;26215;-77
2021/04/02 08:55:46;;;;;;;4.63;1.63;;;;;;;8.75;100.00;103017.97;1869861;76;26224;-76
2021/04/02 08:58:15;;;;;;;6.23;1.73;;;;;;;8.57;100.00;103019.20;1864651;76;26648;-77
2021/04/02 09:00:45;;;;;;;4.13;2.37;;;;;;;8.47;100.00;103023.82;1873201;76;26207;-77
2021/04/02 09:03:15;;;;;;;4.83;1.50;;;;;;;8.33;100.00;103026.87;1873216;76;26239;-76
2021/04/02 09:05:45;;;;;;;6.17;1.77;;;;;;;8.37;100.00;103038.68;1866968;76;26208;-77
2021/04/02 09:08:15;;;;;;;6.43;1.70;;;;;;;8.53;100.00;103033.19;1873184;76;26189;-77
2021/04/02 09:10:45;;;;;;;7.23;1.90;;;;;;;8.82;100.00;103027.63;1866887;76;26197;-77
2021/04/02 09:13:14;;;;;;;7.43;1.77;;;;;;;8.93;100.00;103022.78;1873348;76;26731;-77
2021/04/02 09:15:47;;;;;;;6.90;2.10;;;;;;;9.22;100.00;103024.95;1866778;75;26321;-77
2021/04/02 09:18:18;;;;;;;6.27;1.57;;;;;;;9.43;100.00;103033.45;1866919;76;26314;-77
2021/04/02 09:20:48;;;;;;;7.20;2.20;;;;;;;9.46;100.00;103027.44;1873237;76;26278;-77
2021/04/02 09:23:18;;;;;;;5.30;2.00;;;;;;;9.49;100.00;103022.31;1868566;76;26197;-76
2021/04/02 09:25:51;;;;;;;3.33;1.73;;;;;;;9.57;100.00;103019.80;1872057;76;26289;-77
2021/04/02 09:28:24;;;;;;;4.53;2.13;;;;;;;9.52;100.00;103018.23;1873243;76;26205;-77
2021/04/02 09:31:14;;;;;;;5.27;1.67;;;;;;;9.56;100.00;103024.49;1865188;76;26220;-77
2021/04/02 09:33:45;;;;;;;4.23;1.70;;;;;;;9.66;100.00;103022.61;1864331;76;26282;-76
2021/04/02 09:36:16;;;;;;;5.77;1.73;;;;;;;9.53;100.00;103020.78;1867634;76;26616;-77
2021/04/02 09:38:47;;;;;;;4.87;2.17;;;;;;;9.57;100.00;103019.80;1866943;76;26242;-77
2021/04/02 09:41:23;;;;;;;8.70;2.00;;;;;;;9.26;100.00;103027.59;1866974;76;26216;-76
2021/04/02 09:43:54;;;;;;;5.60;1.50;;;;;;;9.16;100.00;103027.78;1866458;76;26282;-76
2021/04/02 09:46:34;;;;;;;4.43;1.97;;;;;;;8.98;100.00;103032.68;1861619;76;26737;-76
2021/04/02 09:49:10;;;;;;;6.17;2.23;;;;;;;9.23;100.00;103024.42;1873132;76;26639;-76
2021/04/02 09:51:42;;;;;;;3.97;2.17;;;;;;;10.02;100.00;103029.63;1873129;76;26270;-76
2021/04/02 09:54:13;;;;;;;3.83;1.57;;;;;;;10.18;100.00;103022.69;1873253;76;26216;-77
2021/04/02 09:56:45;;;;;;;4.27;2.00;;;;;;;10.18;100.00;103021.30;1873215;76;26212;-76
2021/04/02 09:59:15;;;;;;;4.03;1.50;;;;;;;10.05;100.00;103020.00;1865219;76;26274;-76
2021/04/02 10:01:46;;;;;;;4.77;1.77;;;;;;;9.46;100.00;103020.50;1862717;76;26201;-76
2021/04/02 10:04:17;;;;;;;4.70;1.80;;;;;;;9.44;100.00;103022.13;1865458;76;26313;-76
2021/04/02 10:06:48;;;;;;;7.37;1.90;;;;;;;9.26;100.00;103027.59;1862505;76;26643;-75
2021/04/02 10:09:17;;;;;;;3.53;1.90;;;;;;;9.02;100.00;103028.39;1873117;76;26204;-75
2021/04/02 10:11:49;;;;;;;3.37;1.73;;;;;;;8.85;100.00;103035.52;1873232;76;26725;-76
2021/04/02 10:14:21;;;;;;;4.00;2.00;;;;;;;8.78;100.00;103041.08;1866875;76;26693;-75
2021/04/02 10:16:51;;;;;;;6.13;2.10;;;;;;;9.24;100.00;103040.81;1868758;75;26675;-75
2021/04/02 10:19:21;;;;;;;3.80;1.90;;;;;;;9.70;100.00;103038.26;1871715;76;26208;-75
2021/04/02 10:21:51;;;;;;;4.13;1.80;;;;;;;9.74;100.00;103041.75;1873161;76;26200;-75
2021/04/02 10:24:21;;;;;;;6.40;2.17;;;;;;;9.81;100.00;103034.73;1866367;76;26181;-80
2021/04/02 10:26:51;;;;;;;9.20;1.90;;;;;;;10.10;100.00;103035.42;1867951;76;26208;-75
2021/04/02 10:29:22;;;;;;;7.10;1.83;;;;;;;10.22;100.00;103024.45;1873211;76;26213;-76
2021/04/02 10:31:51;;;;;;;5.13;1.60;;;;;;;10.16;100.00;103028.99;1866938;76;26204;-76
2021/04/02 10:34:24;;;;;;;5.37;2.10;;;;;;;9.84;100.00;103033.73;1867175;76;26266;-77
2021/04/02 10:36:54;;;;;;;4.20;1.70;;;;;;;9.79;100.00;103040.53;1867498;76;26216;-77
2021/04/02 10:39:24;;;;;;;4.13;1.53;;;;;;;9.87;100.00;103044.41;1867117;76;26301;-76
2021/04/02 10:41:53;;;;;;;3.53;1.97;;;;;;;9.75;100.00;103039.83;1873282;76;26208;-76
2021/04/02 10:44:23;;;;;;;4.37;1.80;;;;;;;10.12;100.00;103040.22;1866853;76;26271;-76
2021/04/02 10:46:54;;;;;;;5.83;1.87;;;;;;;10.55;100.00;103030.48;1873155;76;26209;-76
2021/04/02 10:49:24;;;;;;;4.73;1.97;;;;;;;10.92;100.00;103025.72;1862029;76;26254;-79
2021/04/02 10:51:53;;;;;;;7.73;2.03;;;;;;;11.08;100.00;103029.80;1872328;76;26197;-78
2021/04/02 10:54:23;;;;;;;3.93;1.97;;;;;;;11.11;100.00;103032.10;1873149;76;26250;-79
2021/04/02 10:56:53;;;;;;;6.40;2.10;;;;;;;11.39;100.00;103026.20;1860578;76;26395;-82
2021/04/02 10:59:23;;;;;;;5.67;1.60;;;;;;;11.24;100.00;103028.59;1862721;76;26180;-78
2021/04/02 11:01:53;;;;;;;2.63;1.70;;;;;;;10.80;100.00;103029.84;1865066;76;26204;-78
2021/04/02 11:04:22;;;;;;;4.83;1.90;;;;;;;10.76;100.00;103027.22;1869600;76;26257;-78
2021/04/02 11:06:52;;;;;;;3.93;2.10;;;;;;;10.67;100.00;103034.17;1858376;76;26680;-78
2021/04/02 11:09:22;;;;;;;6.47;1.93;;;;;;;10.15;100.00;103039.78;1867007;76;26654;-78
2021/04/02 11:11:52;;;;;;;5.50;2.00;;;;;;;10.18;100.00;103035.72;1860991;76;26258;-78
2021/04/02 11:14:22;;;;;;;3.20;1.87;;;;;;;10.08;100.00;103032.57;1864436;76;26213;-78
2021/04/02 11:16:51;;;;;;;4.10;1.90;;;;;;;10.14;100.00;103043.59;1868669;75;26248;-78
2021/04/02 11:19:22;;;;;;;7.53;2.20;;;;;;;10.03;100.00;103038.27;1857253;76;26208;-78
2021/04/02 11:21:52;;;;;;;5.03;1.93;;;;;;;10.00;100.00;103045.68;1871663;76;26188;-77
2021/04/02 11:24:21;;;;;;;3.30;2.40;;;;;;;10.18;100.00;103046.83;1873423;76;26197;-78
2021/04/02 11:26:52;;;;;;;6.40;2.63;;;;;;;10.43;100.00;103042.06;1873212;76;26201;-78
2021/04/02 11:29:22;;;;;;;4.70;2.10;;;;;;;10.27;100.00;103037.94;1873171;76;26663;-78
2021/04/02 11:31:52;;;;;;;5.13;2.20;;;;;;;10.14;100.00;103044.16;1873168;76;26255;-78
2021/04/02 11:34:22;;;;;;;4.53;2.30;;;;;;;9.93;100.00;103040.70;1873263;76;26200;-78
2021/04/02 11:36:52;;;;;;;8.60;2.50;;;;;;;10.26;100.00;103036.80;1873164;76;26185;-78
2021/04/02 11:39:22;;;;;;;8.20;2.23;;;;;;;10.65;100.00;103027.16;1873243;76;26285;-78
2021/04/02 11:41:52;;;;;;;6.77;2.33;;;;;;;10.35;100.00;103032.65;1873156;76;26201;-78
2021/04/02 11:44:22;;;;;;;4.53;2.23;;;;;;;10.52;100.00;103031.49;1873183;76;26212;-78